PDA006 UKBB-LTAI
Flight info
| Callsign | PDA006 |
|---|---|
| Flight time | 1h 58m |
| Altitude | 35000 |
| Route | BASOR M856 ROMOK M861 RAKUR/N0479F350 UM856 BAG UW77 HISAR |
| Aircraft | B772/H-SDE2E3FGHIJ5LORVWXY/LB1D1 |
Departure
| Time | 2026-05-05 18:54 |
|---|---|
| Airport | Boryspil International Airport (UKBB) |
Arrival
| Time | 2026-05-05 20:52 |
|---|---|
| Airport | Antalya International Airport (LTAI) |
| Time | Latitude | Longitude | Altitude | Speed | Heading |
|---|---|---|---|---|---|
| 2026-05-05 18:27 | 50.33419 | 30.89759 | 409 ft | 0 kts | 182° |
| 2026-05-05 18:47 | 50.33407 | 30.89758 | 408 ft | 6 kts | 182° |
| 2026-05-05 18:47 | 50.33364 | 30.89763 | 409 ft | 7 kts | 163° |
| 2026-05-05 18:47 | 50.33336 | 30.89830 | 410 ft | 8 kts | 100° |
| 2026-05-05 18:47 | 50.33332 | 30.89916 | 413 ft | 8 kts | 94° |
| 2026-05-05 18:48 | 50.33329 | 30.90001 | 414 ft | 8 kts | 94° |
| 2026-05-05 18:48 | 50.33337 | 30.90084 | 414 ft | 8 kts | 64° |
| 2026-05-05 18:48 | 50.33382 | 30.90125 | 415 ft | 8 kts | 6° |
| 2026-05-05 18:48 | 50.33478 | 30.90134 | 409 ft | 18 kts | 3° |
| 2026-05-05 18:49 | 50.33648 | 30.90147 | 411 ft | 28 kts | 2° |
| 2026-05-05 18:49 | 50.33840 | 30.90161 | 412 ft | 28 kts | 2° |
| 2026-05-05 18:49 | 50.34032 | 30.90175 | 410 ft | 28 kts | 2° |
| 2026-05-05 18:49 | 50.34224 | 30.90189 | 410 ft | 28 kts | 2° |
| 2026-05-05 18:50 | 50.34416 | 30.90202 | 411 ft | 28 kts | 2° |
| 2026-05-05 18:50 | 50.34608 | 30.90216 | 410 ft | 28 kts | 2° |
| 2026-05-05 18:50 | 50.34800 | 30.90229 | 410 ft | 28 kts | 2° |
| 2026-05-05 18:50 | 50.34989 | 30.90243 | 416 ft | 28 kts | 3° |
| 2026-05-05 18:51 | 50.35181 | 30.90259 | 415 ft | 28 kts | 3° |
| 2026-05-05 18:51 | 50.35373 | 30.90273 | 411 ft | 28 kts | 2° |
| 2026-05-05 18:51 | 50.35565 | 30.90287 | 412 ft | 28 kts | 2° |
| 2026-05-05 18:51 | 50.35757 | 30.90301 | 414 ft | 28 kts | 2° |
| 2026-05-05 18:52 | 50.35945 | 30.90315 | 410 ft | 24 kts | 2° |
| 2026-05-05 18:52 | 50.36063 | 30.90367 | 414 ft | 16 kts | 44° |
| 2026-05-05 18:52 | 50.36080 | 30.90529 | 416 ft | 16 kts | 113° |
| 2026-05-05 18:52 | 50.35999 | 30.90640 | 413 ft | 16 kts | 163° |
| 2026-05-05 18:53 | 50.35922 | 30.90642 | 416 ft | 8 kts | 183° |
| 2026-05-05 18:53 | 50.35761 | 30.90627 | 419 ft | 46 kts | 183° |
| 2026-05-05 18:53 | 50.35211 | 30.90585 | 420 ft | 111 kts | 182° |
| 2026-05-05 18:53 | 50.34238 | 30.90516 | 458 ft | 164 kts | 182° |
| 2026-05-05 18:54 | 50.33036 | 30.90400 | 980 ft | 177 kts | 185° |
| 2026-05-05 18:54 | 50.31779 | 30.90218 | 1718 ft | 186 kts | 187° |
| 2026-05-05 18:54 | 50.30464 | 30.90016 | 2444 ft | 190 kts | 186° |
| 2026-05-05 18:54 | 50.29090 | 30.89842 | 2713 ft | 209 kts | 187° |
| 2026-05-05 18:55 | 50.27570 | 30.89630 | 2948 ft | 228 kts | 187° |
| 2026-05-05 18:55 | 50.25960 | 30.89412 | 3306 ft | 243 kts | 187° |
| 2026-05-05 18:55 | 50.24244 | 30.89193 | 3831 ft | 251 kts | 187° |
| 2026-05-05 18:55 | 50.22467 | 30.88972 | 4353 ft | 261 kts | 186° |
| 2026-05-05 18:56 | 50.20632 | 30.88745 | 4966 ft | 267 kts | 187° |
| 2026-05-05 18:56 | 50.18768 | 30.88517 | 5636 ft | 270 kts | 187° |
| 2026-05-05 18:56 | 50.16944 | 30.87896 | 6050 ft | 270 kts | 210° |
| 2026-05-05 18:56 | 50.15330 | 30.86385 | 6417 ft | 274 kts | 207° |
| 2026-05-05 18:57 | 50.13456 | 30.85734 | 6872 ft | 279 kts | 187° |
| 2026-05-05 18:57 | 50.11506 | 30.85387 | 7441 ft | 283 kts | 192° |
| 2026-05-05 18:57 | 50.09568 | 30.84801 | 8156 ft | 284 kts | 194° |
| 2026-05-05 18:57 | 50.07621 | 30.84143 | 8801 ft | 288 kts | 195° |
| 2026-05-05 18:58 | 50.05654 | 30.83466 | 9462 ft | 292 kts | 195° |
| 2026-05-05 18:58 | 50.03651 | 30.82816 | 10114 ft | 295 kts | 193° |
| 2026-05-05 18:58 | 50.01585 | 30.82218 | 10440 ft | 312 kts | 192° |
| 2026-05-05 18:58 | 49.99371 | 30.81592 | 10608 ft | 335 kts | 192° |
| 2026-05-05 18:59 | 49.97002 | 30.80927 | 10778 ft | 357 kts | 192° |
| 2026-05-05 18:59 | 49.94521 | 30.80228 | 11063 ft | 375 kts | 191° |
| 2026-05-05 18:59 | 49.91906 | 30.79492 | 11588 ft | 387 kts | 191° |
| 2026-05-05 18:59 | 49.89226 | 30.78735 | 12350 ft | 394 kts | 191° |
| 2026-05-05 19:00 | 49.86519 | 30.77970 | 13234 ft | 398 kts | 190° |
| 2026-05-05 19:00 | 49.83782 | 30.77195 | 14034 ft | 402 kts | 190° |
| 2026-05-05 19:00 | 49.81011 | 30.76411 | 14767 ft | 407 kts | 190° |
| 2026-05-05 19:00 | 49.78219 | 30.75621 | 15539 ft | 410 kts | 190° |
| 2026-05-05 19:01 | 49.75393 | 30.74821 | 16266 ft | 415 kts | 189° |
| 2026-05-05 19:01 | 49.72536 | 30.74013 | 16949 ft | 420 kts | 189° |
| 2026-05-05 19:01 | 49.69646 | 30.73197 | 17649 ft | 424 kts | 189° |
| 2026-05-05 19:01 | 49.66728 | 30.72374 | 18307 ft | 429 kts | 189° |
| 2026-05-05 19:02 | 49.63776 | 30.71543 | 18899 ft | 432 kts | 189° |
| 2026-05-05 19:02 | 49.60803 | 30.70706 | 19544 ft | 435 kts | 189° |
| 2026-05-05 19:02 | 49.57823 | 30.69870 | 20179 ft | 437 kts | 189° |
| 2026-05-05 19:02 | 49.54805 | 30.69225 | 20770 ft | 439 kts | 183° |
| 2026-05-05 19:03 | 49.51750 | 30.69092 | 21339 ft | 441 kts | 179° |
| 2026-05-05 19:03 | 49.48666 | 30.69077 | 21902 ft | 445 kts | 179° |
| 2026-05-05 19:03 | 49.45558 | 30.69047 | 22492 ft | 448 kts | 179° |
| 2026-05-05 19:03 | 49.42435 | 30.69000 | 23086 ft | 451 kts | 179° |
| 2026-05-05 19:04 | 49.39289 | 30.68940 | 23640 ft | 453 kts | 179° |
| 2026-05-05 19:04 | 49.36169 | 30.68873 | 24102 ft | 456 kts | 179° |
| 2026-05-05 19:04 | 49.32985 | 30.68802 | 24557 ft | 459 kts | 179° |
| 2026-05-05 19:04 | 49.29776 | 30.68729 | 24995 ft | 462 kts | 179° |
| 2026-05-05 19:05 | 49.26551 | 30.68657 | 25440 ft | 465 kts | 179° |
| 2026-05-05 19:05 | 49.23299 | 30.68586 | 25861 ft | 468 kts | 180° |
| 2026-05-05 19:05 | 49.20031 | 30.68514 | 26261 ft | 471 kts | 179° |
| 2026-05-05 19:05 | 49.16743 | 30.68443 | 26643 ft | 474 kts | 179° |
| 2026-05-05 19:06 | 49.13436 | 30.68373 | 27027 ft | 477 kts | 179° |
| 2026-05-05 19:06 | 49.10109 | 30.68303 | 27409 ft | 479 kts | 179° |
| 2026-05-05 19:06 | 49.06765 | 30.68233 | 27777 ft | 481 kts | 180° |
| 2026-05-05 19:06 | 49.03409 | 30.68162 | 28135 ft | 484 kts | 180° |
| 2026-05-05 19:07 | 49.00035 | 30.68091 | 28443 ft | 486 kts | 180° |
| 2026-05-05 19:07 | 48.96647 | 30.68020 | 28746 ft | 488 kts | 180° |
| 2026-05-05 19:07 | 48.93241 | 30.67948 | 29039 ft | 490 kts | 180° |
| 2026-05-05 19:07 | 48.89819 | 30.67876 | 29321 ft | 492 kts | 180° |
| 2026-05-05 19:08 | 48.86389 | 30.67804 | 29601 ft | 494 kts | 180° |
| 2026-05-05 19:08 | 48.82947 | 30.67731 | 29831 ft | 496 kts | 180° |
| 2026-05-05 19:08 | 48.79541 | 30.67660 | 30135 ft | 496 kts | 180° |
| 2026-05-05 19:08 | 48.76100 | 30.67587 | 30452 ft | 495 kts | 180° |
| 2026-05-05 19:09 | 48.72664 | 30.67515 | 30781 ft | 493 kts | 180° |
| 2026-05-05 19:09 | 48.69232 | 30.67444 | 31088 ft | 492 kts | 180° |
| 2026-05-05 19:09 | 48.65809 | 30.67372 | 31389 ft | 492 kts | 180° |
| 2026-05-05 19:09 | 48.62388 | 30.67301 | 31669 ft | 491 kts | 180° |
| 2026-05-05 19:10 | 48.58976 | 30.67231 | 31960 ft | 490 kts | 180° |
| 2026-05-05 19:10 | 48.55563 | 30.67160 | 32254 ft | 490 kts | 180° |
| 2026-05-05 19:10 | 48.52159 | 30.67090 | 32566 ft | 489 kts | 180° |
| 2026-05-05 19:10 | 48.48758 | 30.67019 | 32856 ft | 489 kts | 180° |
| 2026-05-05 19:11 | 48.45361 | 30.66949 | 33137 ft | 488 kts | 180° |
| 2026-05-05 19:11 | 48.41965 | 30.66879 | 33441 ft | 487 kts | 180° |
| 2026-05-05 19:11 | 48.38585 | 30.66809 | 33743 ft | 486 kts | 180° |
| 2026-05-05 19:11 | 48.35208 | 30.66740 | 34039 ft | 485 kts | 180° |
| 2026-05-05 19:12 | 48.31843 | 30.66671 | 34355 ft | 482 kts | 180° |
| 2026-05-05 19:12 | 48.28493 | 30.66602 | 34587 ft | 482 kts | 180° |
| 2026-05-05 19:12 | 48.25134 | 30.66534 | 34755 ft | 483 kts | 180° |
| 2026-05-05 19:12 | 48.21762 | 30.66465 | 34867 ft | 485 kts | 180° |
| 2026-05-05 19:13 | 48.15053 | 30.66327 | 34969 ft | 484 kts | 180° |
| 2026-05-05 19:13 | 48.08315 | 30.66312 | 34981 ft | 483 kts | 176° |
| 2026-05-05 19:14 | 48.01651 | 30.67558 | 34991 ft | 482 kts | 171° |
| 2026-05-05 19:14 | 47.95007 | 30.68993 | 34985 ft | 482 kts | 171° |
| 2026-05-05 19:15 | 47.88357 | 30.70384 | 34989 ft | 483 kts | 172° |
| 2026-05-05 19:15 | 47.81692 | 30.71746 | 34990 ft | 483 kts | 172° |
| 2026-05-05 19:16 | 47.75024 | 30.73097 | 34990 ft | 483 kts | 172° |
| 2026-05-05 19:16 | 47.68352 | 30.74446 | 34991 ft | 484 kts | 172° |
| 2026-05-05 19:17 | 47.61719 | 30.75786 | 34996 ft | 484 kts | 172° |
| 2026-05-05 19:17 | 47.55035 | 30.77133 | 34994 ft | 484 kts | 172° |
| 2026-05-05 19:18 | 47.48354 | 30.78476 | 35001 ft | 485 kts | 172° |
| 2026-05-05 19:18 | 47.41673 | 30.79815 | 35003 ft | 485 kts | 172° |
| 2026-05-05 19:19 | 47.34986 | 30.81152 | 35005 ft | 485 kts | 172° |
| 2026-05-05 19:19 | 47.28297 | 30.82487 | 35003 ft | 485 kts | 171° |
| 2026-05-05 19:20 | 47.21603 | 30.83819 | 35007 ft | 486 kts | 172° |
| 2026-05-05 19:20 | 47.14901 | 30.85150 | 35016 ft | 486 kts | 172° |
| 2026-05-05 19:21 | 47.08193 | 30.86477 | 35012 ft | 486 kts | 172° |
| 2026-05-05 19:21 | 47.01531 | 30.87793 | 35021 ft | 486 kts | 172° |
| 2026-05-05 19:22 | 46.94829 | 30.89113 | 35020 ft | 485 kts | 172° |
| 2026-05-05 19:22 | 46.88131 | 30.90428 | 35021 ft | 485 kts | 172° |
| 2026-05-05 19:23 | 46.81438 | 30.91740 | 35021 ft | 485 kts | 172° |
| 2026-05-05 19:23 | 46.74746 | 30.93048 | 35028 ft | 485 kts | 172° |
| 2026-05-05 19:24 | 46.68054 | 30.94353 | 35026 ft | 485 kts | 172° |
| 2026-05-05 19:24 | 46.61358 | 30.95656 | 35031 ft | 485 kts | 172° |
| 2026-05-05 19:25 | 46.54660 | 30.96955 | 35031 ft | 486 kts | 171° |
| 2026-05-05 19:25 | 46.47957 | 30.98253 | 35034 ft | 486 kts | 172° |
| 2026-05-05 19:26 | 46.41242 | 30.99549 | 35033 ft | 487 kts | 172° |
| 2026-05-05 19:26 | 46.34551 | 31.00837 | 35038 ft | 488 kts | 172° |
| 2026-05-05 19:27 | 46.27820 | 31.02131 | 35039 ft | 488 kts | 172° |
| 2026-05-05 19:27 | 46.21082 | 31.03421 | 35042 ft | 489 kts | 171° |
| 2026-05-05 19:28 | 46.14324 | 31.04713 | 35045 ft | 490 kts | 171° |
| 2026-05-05 19:28 | 46.07557 | 31.06004 | 35047 ft | 491 kts | 171° |
| 2026-05-05 19:29 | 46.00785 | 31.07292 | 35052 ft | 491 kts | 171° |
| 2026-05-05 19:29 | 45.94005 | 31.08579 | 35049 ft | 491 kts | 171° |
| 2026-05-05 19:30 | 45.87223 | 31.09851 | 35048 ft | 492 kts | 172° |
| 2026-05-05 19:30 | 45.80360 | 31.10230 | 35057 ft | 494 kts | 178° |
| 2026-05-05 19:31 | 45.73514 | 31.10288 | 35052 ft | 495 kts | 178° |
| 2026-05-05 19:31 | 45.66605 | 31.10391 | 35054 ft | 496 kts | 178° |
| 2026-05-05 19:32 | 45.60868 | 31.10503 | 35055 ft | 496 kts | 178° |
| 2026-05-05 19:32 | 45.53945 | 31.10645 | 35063 ft | 497 kts | 178° |
| 2026-05-05 19:33 | 45.47019 | 31.10784 | 35057 ft | 498 kts | 178° |
| 2026-05-05 19:33 | 45.40077 | 31.10920 | 35059 ft | 499 kts | 178° |
| 2026-05-05 19:34 | 45.33125 | 31.11057 | 35057 ft | 500 kts | 178° |
| 2026-05-05 19:35 | 45.22752 | 31.12153 | 35059 ft | 498 kts | 166° |
| 2026-05-05 19:35 | 45.16050 | 31.14570 | 35069 ft | 497 kts | 163° |
| 2026-05-05 19:36 | 45.09337 | 31.17014 | 35062 ft | 499 kts | 163° |
| 2026-05-05 19:36 | 45.02603 | 31.19408 | 35058 ft | 499 kts | 164° |
| 2026-05-05 19:37 | 44.95846 | 31.21782 | 35054 ft | 500 kts | 164° |
| 2026-05-05 19:37 | 44.89132 | 31.24133 | 35058 ft | 500 kts | 163° |
| 2026-05-05 19:38 | 44.82371 | 31.26499 | 35067 ft | 501 kts | 163° |
| 2026-05-05 19:38 | 44.75598 | 31.28864 | 35056 ft | 502 kts | 164° |
| 2026-05-05 19:39 | 44.68812 | 31.31229 | 35059 ft | 502 kts | 164° |
| 2026-05-05 19:39 | 44.62020 | 31.33589 | 35063 ft | 503 kts | 164° |
| 2026-05-05 19:40 | 44.55228 | 31.35944 | 35056 ft | 503 kts | 164° |
| 2026-05-05 19:40 | 44.48438 | 31.38292 | 35052 ft | 503 kts | 164° |
| 2026-05-05 19:41 | 44.41645 | 31.40636 | 35053 ft | 502 kts | 164° |
| 2026-05-05 19:41 | 44.34851 | 31.42976 | 35074 ft | 502 kts | 164° |
| 2026-05-05 19:42 | 44.28061 | 31.45310 | 35059 ft | 503 kts | 164° |
| 2026-05-05 19:42 | 44.21261 | 31.47652 | 35056 ft | 503 kts | 163° |
| 2026-05-05 19:43 | 44.14466 | 31.49991 | 35061 ft | 503 kts | 163° |
| 2026-05-05 19:43 | 44.07710 | 31.52310 | 35059 ft | 503 kts | 164° |
| 2026-05-05 19:44 | 44.00909 | 31.54638 | 35064 ft | 503 kts | 164° |
| 2026-05-05 19:44 | 43.94094 | 31.56965 | 35055 ft | 503 kts | 164° |
| 2026-05-05 19:45 | 43.87291 | 31.59282 | 35057 ft | 503 kts | 164° |
| 2026-05-05 19:45 | 43.80489 | 31.61594 | 35053 ft | 504 kts | 164° |
| 2026-05-05 19:46 | 43.73675 | 31.63905 | 35059 ft | 504 kts | 164° |
| 2026-05-05 19:46 | 43.66867 | 31.66208 | 35053 ft | 504 kts | 164° |
| 2026-05-05 19:47 | 43.60061 | 31.68505 | 35057 ft | 503 kts | 164° |
| 2026-05-05 19:47 | 43.53247 | 31.70801 | 35058 ft | 504 kts | 164° |
| 2026-05-05 19:48 | 43.46477 | 31.73075 | 35058 ft | 504 kts | 164° |
| 2026-05-05 19:48 | 43.39645 | 31.75333 | 35053 ft | 504 kts | 165° |
| 2026-05-05 19:49 | 43.32817 | 31.77570 | 35052 ft | 504 kts | 165° |
| 2026-05-05 19:49 | 43.25986 | 31.79807 | 35056 ft | 504 kts | 165° |
| 2026-05-05 19:50 | 43.19155 | 31.82043 | 35057 ft | 505 kts | 165° |
| 2026-05-05 19:50 | 43.12304 | 31.84282 | 35052 ft | 506 kts | 165° |
| 2026-05-05 19:51 | 43.05497 | 31.86500 | 35056 ft | 506 kts | 165° |
| 2026-05-05 19:51 | 42.98639 | 31.88730 | 35076 ft | 506 kts | 165° |
| 2026-05-05 19:52 | 42.91775 | 31.90958 | 35061 ft | 507 kts | 165° |
| 2026-05-05 19:52 | 42.84916 | 31.93179 | 35052 ft | 507 kts | 165° |
| 2026-05-05 19:53 | 42.78042 | 31.95402 | 35058 ft | 507 kts | 165° |
| 2026-05-05 19:53 | 42.71176 | 31.97664 | 35072 ft | 508 kts | 165° |
| 2026-05-05 19:54 | 42.64307 | 31.99940 | 35051 ft | 508 kts | 165° |
| 2026-05-05 19:54 | 42.57426 | 32.02209 | 35055 ft | 508 kts | 165° |
| 2026-05-05 19:55 | 42.50586 | 32.04455 | 35056 ft | 509 kts | 165° |
| 2026-05-05 19:55 | 42.43706 | 32.06708 | 35061 ft | 509 kts | 165° |
| 2026-05-05 19:56 | 42.36807 | 32.08962 | 35054 ft | 509 kts | 165° |
| 2026-05-05 19:56 | 42.29915 | 32.11208 | 35057 ft | 510 kts | 165° |
| 2026-05-05 19:57 | 42.23018 | 32.13452 | 35057 ft | 510 kts | 165° |
| 2026-05-05 19:57 | 42.16122 | 32.15690 | 35064 ft | 510 kts | 166° |
| 2026-05-05 19:58 | 42.09216 | 32.17927 | 35059 ft | 510 kts | 166° |
| 2026-05-05 19:58 | 42.02305 | 32.20160 | 35059 ft | 510 kts | 166° |
| 2026-05-05 19:59 | 41.95400 | 32.22386 | 35062 ft | 510 kts | 166° |
| 2026-05-05 19:59 | 41.88492 | 32.24608 | 35061 ft | 510 kts | 166° |
| 2026-05-05 20:00 | 41.81580 | 32.26827 | 35061 ft | 510 kts | 166° |
| 2026-05-05 20:00 | 41.74670 | 32.29041 | 35052 ft | 510 kts | 166° |
| 2026-05-05 20:01 | 41.67765 | 32.31243 | 35076 ft | 510 kts | 166° |
| 2026-05-05 20:01 | 41.60849 | 32.33432 | 35067 ft | 511 kts | 166° |
| 2026-05-05 20:02 | 41.53976 | 32.35603 | 35060 ft | 511 kts | 166° |
| 2026-05-05 20:02 | 41.47017 | 32.37799 | 35066 ft | 511 kts | 166° |
| 2026-05-05 20:03 | 41.40136 | 32.39967 | 35073 ft | 511 kts | 166° |
| 2026-05-05 20:03 | 41.33194 | 32.42148 | 35068 ft | 512 kts | 166° |
| 2026-05-05 20:04 | 41.26251 | 32.44326 | 35058 ft | 512 kts | 166° |
| 2026-05-05 20:04 | 41.19314 | 32.46496 | 35067 ft | 511 kts | 166° |
| 2026-05-05 20:05 | 41.12369 | 32.48664 | 35073 ft | 512 kts | 167° |
| 2026-05-05 20:05 | 41.05426 | 32.50828 | 35056 ft | 512 kts | 167° |
| 2026-05-05 20:06 | 40.98527 | 32.52972 | 35054 ft | 512 kts | 167° |
| 2026-05-05 20:06 | 40.91593 | 32.55123 | 35072 ft | 512 kts | 167° |
| 2026-05-05 20:07 | 40.84647 | 32.57273 | 35051 ft | 513 kts | 167° |
| 2026-05-05 20:07 | 40.77689 | 32.59422 | 35052 ft | 513 kts | 167° |
| 2026-05-05 20:08 | 40.70729 | 32.61567 | 35053 ft | 513 kts | 167° |
| 2026-05-05 20:08 | 40.63768 | 32.63708 | 35040 ft | 513 kts | 167° |
| 2026-05-05 20:09 | 40.56815 | 32.65842 | 35048 ft | 513 kts | 167° |
| 2026-05-05 20:09 | 40.49900 | 32.67960 | 35038 ft | 513 kts | 167° |
| 2026-05-05 20:10 | 40.42945 | 32.70085 | 35036 ft | 513 kts | 168° |
| 2026-05-05 20:10 | 40.35982 | 32.72208 | 35035 ft | 514 kts | 168° |
| 2026-05-05 20:11 | 40.29015 | 32.74328 | 35036 ft | 514 kts | 168° |
| 2026-05-05 20:11 | 40.22042 | 32.76446 | 35021 ft | 514 kts | 168° |
| 2026-05-05 20:12 | 40.15081 | 32.78557 | 35031 ft | 514 kts | 168° |
| 2026-05-05 20:12 | 40.08066 | 32.79739 | 35034 ft | 506 kts | 187° |
| 2026-05-05 20:12 | 40.04617 | 32.78999 | 35037 ft | 502 kts | 198° |
| 2026-05-05 20:13 | 40.01346 | 32.77463 | 35029 ft | 495 kts | 210° |
| 2026-05-05 20:13 | 39.95300 | 32.73247 | 35032 ft | 494 kts | 212° |
| 2026-05-05 20:14 | 39.89212 | 32.69070 | 35035 ft | 496 kts | 211° |
| 2026-05-05 20:14 | 39.83077 | 32.64951 | 35033 ft | 497 kts | 211° |
| 2026-05-05 20:15 | 39.76915 | 32.60847 | 35030 ft | 498 kts | 210° |
| 2026-05-05 20:15 | 39.70780 | 32.56769 | 35034 ft | 498 kts | 210° |
| 2026-05-05 20:16 | 39.64609 | 32.52668 | 35031 ft | 498 kts | 210° |
| 2026-05-05 20:16 | 39.58441 | 32.48578 | 35051 ft | 498 kts | 210° |
| 2026-05-05 20:17 | 39.53316 | 32.45185 | 35047 ft | 497 kts | 210° |
| 2026-05-05 20:17 | 39.47164 | 32.41119 | 35048 ft | 497 kts | 210° |
| 2026-05-05 20:18 | 39.40999 | 32.37053 | 35036 ft | 496 kts | 210° |
| 2026-05-05 20:18 | 39.34853 | 32.33019 | 35039 ft | 495 kts | 210° |
| 2026-05-05 20:19 | 39.28712 | 32.29020 | 35050 ft | 494 kts | 210° |
| 2026-05-05 20:19 | 39.22570 | 32.25028 | 35051 ft | 493 kts | 210° |
| 2026-05-05 20:20 | 39.16477 | 32.21071 | 35057 ft | 493 kts | 210° |
| 2026-05-05 20:20 | 39.10356 | 32.17101 | 35057 ft | 492 kts | 210° |
| 2026-05-05 20:21 | 39.04244 | 32.13145 | 35054 ft | 492 kts | 210° |
| 2026-05-05 20:21 | 38.98132 | 32.09196 | 35063 ft | 491 kts | 210° |
| 2026-05-05 20:22 | 38.92032 | 32.05263 | 35049 ft | 491 kts | 210° |
| 2026-05-05 20:22 | 38.85932 | 32.01338 | 35063 ft | 490 kts | 210° |
| 2026-05-05 20:23 | 38.79836 | 31.97423 | 35067 ft | 490 kts | 210° |
| 2026-05-05 20:23 | 38.73733 | 31.93511 | 35061 ft | 489 kts | 210° |
| 2026-05-05 20:24 | 38.67683 | 31.89640 | 35065 ft | 489 kts | 210° |
| 2026-05-05 20:24 | 38.61563 | 31.85730 | 34382 ft | 499 kts | 210° |
| 2026-05-05 20:24 | 38.58460 | 31.83749 | 33581 ft | 498 kts | 210° |
| 2026-05-05 20:25 | 38.55360 | 31.81775 | 32720 ft | 497 kts | 209° |
| 2026-05-05 20:25 | 38.52264 | 31.79805 | 31816 ft | 497 kts | 209° |
| 2026-05-05 20:25 | 38.49167 | 31.77837 | 30925 ft | 497 kts | 208° |
| 2026-05-05 20:25 | 38.46079 | 31.75876 | 30191 ft | 494 kts | 208° |
| 2026-05-05 20:26 | 38.43021 | 31.73937 | 29457 ft | 487 kts | 208° |
| 2026-05-05 20:26 | 38.40002 | 31.72025 | 28748 ft | 480 kts | 208° |
| 2026-05-05 20:26 | 38.37039 | 31.70150 | 28097 ft | 473 kts | 208° |
| 2026-05-05 20:26 | 38.34105 | 31.68293 | 27444 ft | 467 kts | 208° |
| 2026-05-05 20:27 | 38.31210 | 31.66463 | 26789 ft | 462 kts | 208° |
| 2026-05-05 20:27 | 38.28338 | 31.64647 | 26156 ft | 457 kts | 208° |
| 2026-05-05 20:27 | 38.25529 | 31.62875 | 25969 ft | 443 kts | 208° |
| 2026-05-05 20:27 | 38.22813 | 31.61163 | 25782 ft | 430 kts | 208° |
| 2026-05-05 20:28 | 38.20169 | 31.59496 | 25599 ft | 417 kts | 208° |
| 2026-05-05 20:28 | 38.17637 | 31.57901 | 25433 ft | 406 kts | 208° |
| 2026-05-05 20:28 | 38.15141 | 31.56329 | 25262 ft | 395 kts | 208° |
| 2026-05-05 20:28 | 38.12706 | 31.54800 | 25106 ft | 385 kts | 208° |
| 2026-05-05 20:29 | 38.10306 | 31.53357 | 24850 ft | 379 kts | 204° |
| 2026-05-05 20:29 | 38.07859 | 31.52146 | 24551 ft | 374 kts | 202° |
| 2026-05-05 20:29 | 38.05413 | 31.51049 | 24250 ft | 370 kts | 200° |
| 2026-05-05 20:29 | 38.02994 | 31.49988 | 23944 ft | 366 kts | 200° |
| 2026-05-05 20:30 | 38.00601 | 31.48932 | 23625 ft | 362 kts | 201° |
| 2026-05-05 20:30 | 37.98235 | 31.47875 | 23298 ft | 358 kts | 201° |
| 2026-05-05 20:30 | 37.95900 | 31.46819 | 22987 ft | 354 kts | 201° |
| 2026-05-05 20:30 | 37.93598 | 31.45770 | 22670 ft | 350 kts | 201° |
| 2026-05-05 20:31 | 37.91326 | 31.44730 | 22375 ft | 345 kts | 201° |
| 2026-05-05 20:31 | 37.89080 | 31.43698 | 22093 ft | 342 kts | 202° |
| 2026-05-05 20:31 | 37.86854 | 31.42675 | 21814 ft | 339 kts | 202° |
| 2026-05-05 20:31 | 37.84645 | 31.41658 | 21533 ft | 336 kts | 202° |
| 2026-05-05 20:32 | 37.82455 | 31.40651 | 21254 ft | 334 kts | 202° |
| 2026-05-05 20:32 | 37.80279 | 31.39652 | 20973 ft | 332 kts | 202° |
| 2026-05-05 20:32 | 37.78112 | 31.38655 | 20709 ft | 331 kts | 202° |
| 2026-05-05 20:32 | 37.75950 | 31.37662 | 20437 ft | 330 kts | 202° |
| 2026-05-05 20:33 | 37.73793 | 31.36672 | 20166 ft | 330 kts | 202° |
| 2026-05-05 20:33 | 37.71663 | 31.35695 | 19891 ft | 329 kts | 202° |
| 2026-05-05 20:33 | 37.69509 | 31.34708 | 19625 ft | 328 kts | 202° |
| 2026-05-05 20:33 | 37.67363 | 31.33725 | 19351 ft | 328 kts | 201° |
| 2026-05-05 20:34 | 37.65212 | 31.32740 | 19078 ft | 328 kts | 201° |
| 2026-05-05 20:34 | 37.63071 | 31.31761 | 18809 ft | 327 kts | 201° |
| 2026-05-05 20:34 | 37.60929 | 31.30784 | 18527 ft | 327 kts | 201° |
| 2026-05-05 20:34 | 37.58789 | 31.29807 | 18250 ft | 327 kts | 201° |
| 2026-05-05 20:35 | 37.56646 | 31.28827 | 17959 ft | 328 kts | 201° |
| 2026-05-05 20:35 | 37.54498 | 31.27846 | 17666 ft | 328 kts | 202° |
| 2026-05-05 20:35 | 37.52354 | 31.26869 | 17372 ft | 327 kts | 202° |
| 2026-05-05 20:35 | 37.50218 | 31.25896 | 17103 ft | 326 kts | 202° |
| 2026-05-05 20:36 | 37.48088 | 31.24926 | 16832 ft | 324 kts | 202° |
| 2026-05-05 20:36 | 37.45980 | 31.23967 | 16719 ft | 317 kts | 202° |
| 2026-05-05 20:36 | 37.43933 | 31.23037 | 16730 ft | 312 kts | 202° |
| 2026-05-05 20:36 | 37.41856 | 31.22092 | 16202 ft | 321 kts | 202° |
| 2026-05-05 20:37 | 37.39793 | 31.21156 | 15846 ft | 311 kts | 202° |
| 2026-05-05 20:37 | 37.37743 | 31.20226 | 15557 ft | 318 kts | 202° |
| 2026-05-05 20:37 | 37.35652 | 31.19276 | 15269 ft | 320 kts | 202° |
| 2026-05-05 20:37 | 37.33590 | 31.18341 | 14983 ft | 318 kts | 202° |
| 2026-05-05 20:38 | 37.31501 | 31.17393 | 14707 ft | 312 kts | 202° |
| 2026-05-05 20:38 | 37.29475 | 31.16476 | 14456 ft | 307 kts | 201° |
| 2026-05-05 20:38 | 37.27505 | 31.15586 | 14195 ft | 304 kts | 201° |
| 2026-05-05 20:38 | 37.25520 | 31.14687 | 13949 ft | 303 kts | 201° |
| 2026-05-05 20:39 | 37.23514 | 31.13779 | 13666 ft | 303 kts | 201° |
| 2026-05-05 20:39 | 37.21559 | 31.12895 | 13407 ft | 302 kts | 201° |
| 2026-05-05 20:39 | 37.19586 | 31.12002 | 13134 ft | 301 kts | 201° |
| 2026-05-05 20:39 | 37.17619 | 31.11113 | 12876 ft | 300 kts | 201° |
| 2026-05-05 20:40 | 37.15657 | 31.10227 | 12631 ft | 299 kts | 201° |
| 2026-05-05 20:40 | 37.13712 | 31.09325 | 12387 ft | 297 kts | 205° |
| 2026-05-05 20:40 | 37.11877 | 31.08160 | 12126 ft | 295 kts | 211° |
| 2026-05-05 20:40 | 37.10096 | 31.06899 | 11897 ft | 294 kts | 211° |
| 2026-05-05 20:41 | 37.08311 | 31.05655 | 11647 ft | 293 kts | 211° |
| 2026-05-05 20:41 | 37.06520 | 31.04433 | 11409 ft | 293 kts | 210° |
| 2026-05-05 20:41 | 37.04725 | 31.03218 | 11166 ft | 293 kts | 210° |
| 2026-05-05 20:41 | 37.02927 | 31.02008 | 10917 ft | 293 kts | 210° |
| 2026-05-05 20:42 | 37.01133 | 31.00804 | 10660 ft | 293 kts | 211° |
| 2026-05-05 20:42 | 36.99339 | 30.99602 | 10413 ft | 292 kts | 211° |
| 2026-05-05 20:42 | 36.97553 | 30.98405 | 10194 ft | 290 kts | 211° |
| 2026-05-05 20:42 | 36.95787 | 30.97223 | 9946 ft | 286 kts | 211° |
| 2026-05-05 20:43 | 36.94047 | 30.96059 | 9682 ft | 281 kts | 211° |
| 2026-05-05 20:43 | 36.92333 | 30.94914 | 9437 ft | 277 kts | 211° |
| 2026-05-05 20:43 | 36.90641 | 30.93806 | 9180 ft | 271 kts | 206° |
| 2026-05-05 20:43 | 36.88795 | 30.93224 | 8670 ft | 279 kts | 187° |
| 2026-05-05 20:44 | 36.86836 | 30.93066 | 8139 ft | 286 kts | 184° |
| 2026-05-05 20:44 | 36.84866 | 30.92938 | 7543 ft | 278 kts | 185° |
| 2026-05-05 20:44 | 36.82968 | 30.92794 | 7004 ft | 268 kts | 184° |
| 2026-05-05 20:44 | 36.81110 | 30.92637 | 6497 ft | 275 kts | 185° |
| 2026-05-05 20:45 | 36.77238 | 30.92246 | 5333 ft | 273 kts | 186° |
| 2026-05-05 20:45 | 36.75386 | 30.92006 | 4927 ft | 257 kts | 186° |
| 2026-05-05 20:45 | 36.73667 | 30.91786 | 4955 ft | 242 kts | 186° |
| 2026-05-05 20:46 | 36.72027 | 30.91582 | 4843 ft | 238 kts | 186° |
| 2026-05-05 20:46 | 36.70332 | 30.91367 | 4758 ft | 242 kts | 186° |
| 2026-05-05 20:46 | 36.68753 | 30.90911 | 4690 ft | 229 kts | 214° |
| 2026-05-05 20:46 | 36.67779 | 30.89486 | 4658 ft | 214 kts | 257° |
| 2026-05-05 20:47 | 36.67756 | 30.87667 | 4681 ft | 213 kts | 283° |
| 2026-05-05 20:47 | 36.68235 | 30.85884 | 4349 ft | 220 kts | 299° |
| 2026-05-05 20:47 | 36.69142 | 30.84380 | 4069 ft | 214 kts | 322° |
| 2026-05-05 20:47 | 36.70430 | 30.83570 | 3833 ft | 205 kts | 339° |
| 2026-05-05 20:48 | 36.71771 | 30.82908 | 3547 ft | 209 kts | 338° |
| 2026-05-05 20:48 | 36.73127 | 30.82224 | 3268 ft | 211 kts | 337° |
| 2026-05-05 20:48 | 36.74383 | 30.81304 | 2962 ft | 211 kts | 319° |
| 2026-05-05 20:48 | 36.75346 | 30.79925 | 2708 ft | 210 kts | 308° |
| 2026-05-05 20:49 | 36.76371 | 30.78656 | 2478 ft | 209 kts | 328° |
| 2026-05-05 20:49 | 36.77713 | 30.78045 | 2238 ft | 206 kts | 353° |
| 2026-05-05 20:49 | 36.79120 | 30.77949 | 2023 ft | 200 kts | 0° |
| 2026-05-05 20:49 | 36.80459 | 30.77976 | 1801 ft | 184 kts | 5° |
| 2026-05-05 20:50 | 36.81683 | 30.78120 | 1581 ft | 168 kts | 8° |
| 2026-05-05 20:50 | 36.82796 | 30.78276 | 1326 ft | 154 kts | 7° |
| 2026-05-05 20:50 | 36.83800 | 30.78414 | 1152 ft | 141 kts | 7° |
| 2026-05-05 20:50 | 36.84766 | 30.78548 | 970 ft | 141 kts | 6° |
| 2026-05-05 20:51 | 36.85747 | 30.78682 | 775 ft | 141 kts | 5° |
| 2026-05-05 20:51 | 36.86713 | 30.78817 | 590 ft | 139 kts | 5° |
| 2026-05-05 20:51 | 36.87665 | 30.78951 | 361 ft | 135 kts | 4° |
| 2026-05-05 20:51 | 36.88612 | 30.79077 | 207 ft | 137 kts | 5° |
| 2026-05-05 20:52 | 36.89441 | 30.79188 | 196 ft | 99 kts | 6° |
| 2026-05-05 20:52 | 36.89973 | 30.79261 | 200 ft | 58 kts | 6° |
| 2026-05-05 20:52 | 36.90251 | 30.79302 | 194 ft | 26 kts | 15° |
| 2026-05-05 20:52 | 36.90374 | 30.79390 | 206 ft | 8 kts | 36° |
| 2026-05-05 20:53 | 36.90416 | 30.79429 | 207 ft | 7 kts | 36° |
| 2026-05-05 20:53 | 36.90457 | 30.79466 | 205 ft | 4 kts | 36° |
| 2026-05-05 20:53 | 36.90459 | 30.79468 | 206 ft | 0 kts | 36° |
| 2026-05-05 20:57 | 36.90474 | 30.79483 | 213 ft | 0 kts | 38° |
| 2026-05-05 20:57 | 36.90502 | 30.79510 | 207 ft | 10 kts | 37° |
| 2026-05-05 20:57 | 36.90519 | 30.79525 | 208 ft | 0 kts | 34° |
| 2026-05-05 21:00 | 36.90519 | 30.79526 | 195 ft | 0 kts | 34° |
| 2026-05-05 21:00 | 36.90532 | 30.79537 | 203 ft | 6 kts | 34° |
| 2026-05-05 21:00 | 36.90567 | 30.79567 | 210 ft | 6 kts | 34° |
| 2026-05-05 21:00 | 36.90621 | 30.79615 | 207 ft | 11 kts | 37° |
| 2026-05-05 21:01 | 36.90675 | 30.79676 | 210 ft | 9 kts | 67° |
| 2026-05-05 21:01 | 36.90643 | 30.79715 | 204 ft | 7 kts | 174° |
| 2026-05-05 21:01 | 36.90562 | 30.79705 | 198 ft | 14 kts | 187° |
| 2026-05-05 21:01 | 36.90447 | 30.79681 | 206 ft | 21 kts | 201° |
| 2026-05-05 21:02 | 36.90294 | 30.79627 | 203 ft | 21 kts | 186° |
| 2026-05-05 21:02 | 36.90146 | 30.79608 | 201 ft | 21 kts | 186° |
| 2026-05-05 21:02 | 36.90048 | 30.79595 | 208 ft | 21 kts | 186° |
| 2026-05-05 21:02 | 36.89912 | 30.79576 | 207 ft | 17 kts | 186° |
| 2026-05-05 21:03 | 36.89795 | 30.79551 | 203 ft | 17 kts | 187° |
| 2026-05-05 21:03 | 36.89691 | 30.79539 | 209 ft | 12 kts | 171° |
| 2026-05-05 21:03 | 36.89650 | 30.79645 | 196 ft | 8 kts | 96° |
| 2026-05-05 21:03 | 36.89646 | 30.79693 | 200 ft | 8 kts | 96° |
| 2026-05-05 21:04 | 36.89640 | 30.79764 | 196 ft | 8 kts | 96° |
| 2026-05-05 21:04 | 36.89643 | 30.79810 | 196 ft | 3 kts | 59° |
| 2026-05-05 21:04 | 36.89663 | 30.79821 | 205 ft | 3 kts | 11° |
| 2026-05-05 21:04 | 36.89686 | 30.79817 | 208 ft | 3 kts | 341° |
| 2026-05-05 21:05 | 36.89710 | 30.79806 | 208 ft | 3 kts | 341° |
| 2026-05-05 21:05 | 36.89724 | 30.79800 | 210 ft | 2 kts | 341° |
| 2026-05-05 21:05 | 36.89726 | 30.79799 | 210 ft | 0 kts | 341° |